createdAt,value
2023-03-13T00:10:01.016Z,14.20
2023-03-13T00:20:09.811Z,15.10
2023-03-13T00:30:15.973Z,14.30
2023-03-13T00:40:23.431Z,14.40
2023-03-13T00:50:30.453Z,8.50
2023-03-13T01:00:37.419Z,7.80
2023-03-13T01:10:44.528Z,11.60
2023-03-13T01:20:51.735Z,22.30
2023-03-13T01:31:00.554Z,15.50
2023-03-13T01:41:05.523Z,14.50
2023-03-13T01:51:16.847Z,5.90
2023-03-13T02:01:24.788Z,7.20
2023-03-13T02:11:36.713Z,11.60
2023-03-13T02:21:50.688Z,7.50
2023-03-13T02:31:58.177Z,9.90
2023-03-13T02:42:06.838Z,6.20
2023-03-13T02:52:15.391Z,5.30
2023-03-13T03:02:22.941Z,7.50
2023-03-13T03:12:30.579Z,10.30
2023-03-13T03:22:38.818Z,14.00
2023-03-13T03:32:46.122Z,7.60
2023-03-13T03:42:53.473Z,7.10
2023-03-13T03:53:00.651Z,6.20
2023-03-13T04:03:08.269Z,13.70
2023-03-13T04:13:15.776Z,12.40
2023-03-13T04:23:22.851Z,8.40
2023-03-13T04:33:30.623Z,6.50
2023-03-13T04:43:37.723Z,6.30
2023-03-13T04:53:44.779Z,12.50
2023-03-13T05:03:52.102Z,12.40
2023-03-13T05:13:59.398Z,8.90
2023-03-13T05:24:07.227Z,7.60
2023-03-13T05:34:14.085Z,8.90
2023-03-13T05:44:21.362Z,8.70
2023-03-13T05:54:28.207Z,17.60
2023-03-13T06:04:35.821Z,15.20
2023-03-13T06:14:43.146Z,12.70
2023-03-13T06:24:50.488Z,12.50
2023-03-13T06:34:57.774Z,10.90
2023-03-13T06:45:05.233Z,20.20
2023-03-13T06:55:13.860Z,13.50
2023-03-13T07:05:21.207Z,22.00
2023-03-13T07:15:27.357Z,9.80
2023-03-13T07:35:41.244Z,12.40
2023-03-13T07:45:58.452Z,9.80
2023-03-13T07:56:05.695Z,11.60
2023-03-13T08:06:15.134Z,8.90
2023-03-13T08:26:30.924Z,13.00
2023-03-13T08:36:37.625Z,12.40
2023-03-13T08:46:45.840Z,12.60
2023-03-13T08:56:53.380Z,12.70
2023-03-13T09:07:00.502Z,12.90
2023-03-13T09:17:06.857Z,12.80
2023-03-13T09:27:14.328Z,8.80
2023-03-13T09:37:21.503Z,7.80
2023-03-13T09:47:38.316Z,13.40
2023-03-13T09:57:51.590Z,14.30
2023-03-13T10:07:57.933Z,11.40
2023-03-13T10:18:02.658Z,9.70
2023-03-13T10:28:09.979Z,11.30
2023-03-13T10:38:19.372Z,16.40
2023-03-13T10:48:28.911Z,10.90
2023-03-13T10:58:38.638Z,8.80
2023-03-13T11:08:45.694Z,10.80
2023-03-13T11:18:59.150Z,14.30
2023-03-13T11:29:04.780Z,8.30
2023-03-13T11:39:17.401Z,11.00
2023-03-13T11:49:45.724Z,13.10
2023-03-13T11:59:50.874Z,10.30
2023-03-13T12:10:01.608Z,13.20
2023-03-13T12:20:15.345Z,8.80
2023-03-13T12:30:25.920Z,10.80
2023-03-13T12:40:36.337Z,9.10
2023-03-13T12:50:44.601Z,20.80
2023-03-13T13:00:53.536Z,12.30
2023-03-13T13:11:15.205Z,11.50
2023-03-13T13:21:29.667Z,13.30
2023-03-13T13:31:55.503Z,7.30
2023-03-13T13:42:04.007Z,11.10
2023-03-13T13:52:39.684Z,10.50
2023-03-13T14:02:47.723Z,11.60
2023-03-13T14:12:55.380Z,10.70
2023-03-13T14:23:02.062Z,13.10
2023-03-13T14:33:09.604Z,15.10
2023-03-13T14:43:36.713Z,5.30
2023-03-13T14:53:54.240Z,8.20
2023-03-13T15:04:01.573Z,13.50
2023-03-13T15:14:33.719Z,29.80
2023-03-13T15:24:41.092Z,13.20
2023-03-13T15:34:48.981Z,21.30
2023-03-13T15:44:55.347Z,17.60
2023-03-13T15:55:03.201Z,14.40
2023-03-13T16:05:10.275Z,20.40
2023-03-13T16:15:17.909Z,17.00
2023-03-13T16:25:26.117Z,13.80
2023-03-13T16:35:33.751Z,15.70
2023-03-13T16:45:42.084Z,12.20
2023-03-13T16:55:51.109Z,13.70
2023-03-13T17:05:58.366Z,14.10
2023-03-13T17:16:11.323Z,16.00
2023-03-13T17:26:17.132Z,12.80
2023-03-13T17:36:27.232Z,12.40
2023-03-13T17:46:39.583Z,12.60
2023-03-13T17:56:47.478Z,16.20
2023-03-13T18:06:54.564Z,12.10
2023-03-13T18:17:01.611Z,12.40
2023-03-13T18:27:07.219Z,13.00
2023-03-13T18:37:16.570Z,14.80
2023-03-13T18:47:27.542Z,11.50
2023-03-13T18:57:35.060Z,17.50
2023-03-13T19:07:42.751Z,13.10
2023-03-13T19:17:49.726Z,13.60
2023-03-13T19:38:03.628Z,18.00
2023-03-13T19:48:11.857Z,13.70
2023-03-13T19:58:19.564Z,15.00
2023-03-13T20:08:26.937Z,19.80
2023-03-13T20:18:32.847Z,15.40
2023-03-13T20:28:41.257Z,18.40
2023-03-13T20:38:48.910Z,19.10
2023-03-13T20:48:58.819Z,18.30
2023-03-13T20:59:05.137Z,17.90
2023-03-13T21:09:13.737Z,22.20
2023-03-13T21:19:21.484Z,25.00
2023-03-13T21:29:28.700Z,23.70
2023-03-13T21:39:36.174Z,20.30
2023-03-13T21:49:43.569Z,24.50
2023-03-13T21:59:50.945Z,19.90
2023-03-13T22:09:58.213Z,19.80
2023-03-13T22:20:06.567Z,22.20
2023-03-13T22:30:15.075Z,23.70
2023-03-13T22:40:22.483Z,22.60
2023-03-13T22:50:28.656Z,31.50
2023-03-13T23:00:36.361Z,27.00
2023-03-13T23:10:43.244Z,34.10
2023-03-13T23:20:50.925Z,20.80
2023-03-13T23:30:58.106Z,23.20
2023-03-13T23:41:06.994Z,25.00
2023-03-13T23:51:13.339Z,25.80
